createdAt,value
2023-05-02T00:00:31.861Z,4.54
2023-05-02T00:02:59.106Z,4.46
2023-05-02T00:05:26.277Z,4.37
2023-05-02T00:07:53.161Z,4.30
2023-05-02T00:10:19.936Z,4.27
2023-05-02T00:12:46.672Z,4.25
2023-05-02T00:15:13.383Z,4.23
2023-05-02T00:17:41.888Z,4.21
2023-05-02T00:20:10.662Z,4.18
2023-05-02T00:22:37.830Z,4.18
2023-05-02T00:25:05.123Z,4.17
2023-05-02T00:27:32.222Z,4.17
2023-05-02T00:30:00.655Z,4.18
2023-05-02T00:32:27.710Z,4.20
2023-05-02T00:34:54.569Z,4.21
2023-05-02T00:37:21.470Z,4.21
2023-05-02T00:39:48.206Z,4.21
2023-05-02T00:42:14.850Z,4.20
2023-05-02T00:44:41.562Z,4.18
2023-05-02T00:47:08.479Z,4.17
2023-05-02T00:49:35.187Z,4.16
2023-05-02T00:52:02.689Z,4.15
2023-05-02T00:54:29.370Z,4.12
2023-05-02T00:56:57.573Z,4.08
2023-05-02T00:59:24.686Z,4.06
2023-05-02T01:02:03.578Z,4.01
2023-05-02T01:04:36.561Z,3.97
2023-05-02T01:07:21.556Z,3.95
2023-05-02T01:09:54.385Z,3.93
2023-05-02T01:12:25.423Z,3.91
2023-05-02T01:14:55.127Z,3.90
2023-05-02T01:17:25.017Z,3.89
2023-05-02T01:19:54.139Z,3.87
2023-05-02T01:22:20.829Z,3.84
2023-05-02T01:24:54.162Z,3.82
2023-05-02T01:27:28.216Z,3.82
2023-05-02T01:29:54.958Z,3.80
2023-05-02T01:32:22.765Z,3.76
2023-05-02T01:34:49.452Z,3.74
2023-05-02T01:37:16.155Z,3.72
2023-05-02T01:39:42.903Z,3.72
2023-05-02T01:42:09.595Z,3.71
2023-05-02T01:44:36.672Z,3.70
2023-05-02T01:47:05.443Z,3.68
2023-05-02T01:49:32.908Z,3.65
2023-05-02T01:52:03.882Z,3.63
2023-05-02T01:54:30.611Z,3.61
2023-05-02T01:56:57.250Z,3.58
2023-05-02T01:59:24.007Z,3.55
2023-05-02T02:01:51.702Z,3.52
2023-05-02T02:04:19.585Z,3.51
2023-05-02T02:06:48.926Z,3.49
2023-05-02T02:09:15.685Z,3.46
2023-05-02T02:11:44.501Z,3.46
2023-05-02T02:14:19.288Z,3.46
2023-05-02T02:16:45.938Z,3.47
2023-05-02T02:19:13.711Z,3.49
2023-05-02T02:21:41.170Z,3.50
2023-05-02T02:24:07.951Z,3.52
2023-05-02T02:26:35.311Z,3.53
2023-05-02T02:29:02.064Z,3.53
2023-05-02T02:31:36.017Z,3.52
2023-05-02T02:34:02.815Z,3.50
2023-05-02T02:36:51.153Z,3.48
2023-05-02T02:39:20.380Z,3.46
2023-05-02T02:42:30.925Z,3.43
2023-05-02T02:45:19.428Z,3.41
2023-05-02T02:48:16.537Z,3.39
2023-05-02T02:51:01.879Z,3.37
2023-05-02T02:53:47.323Z,3.34
2023-05-02T02:56:16.000Z,3.33
2023-05-02T02:59:02.090Z,3.32
2023-05-02T03:01:31.418Z,3.31
2023-05-02T03:03:58.384Z,3.31
2023-05-02T03:06:25.322Z,3.33
2023-05-02T03:08:52.440Z,3.37
2023-05-02T03:11:19.386Z,3.43
2023-05-02T03:13:47.316Z,3.49
2023-05-02T03:16:30.628Z,3.56
2023-05-02T03:18:57.433Z,3.63
2023-05-02T03:21:24.427Z,3.69
2023-05-02T03:23:52.067Z,3.76
2023-05-02T03:26:19.018Z,3.81
2023-05-02T03:28:48.971Z,3.87
2023-05-02T03:31:16.236Z,3.93
2023-05-02T03:33:42.914Z,3.98
2023-05-02T03:36:09.629Z,4.04
2023-05-02T03:38:36.287Z,4.10
2023-05-02T03:41:04.190Z,4.16
2023-05-02T03:43:31.150Z,4.22
2023-05-02T03:45:58.081Z,4.28
2023-05-02T03:48:25.449Z,4.36
2023-05-02T03:50:52.313Z,4.45
2023-05-02T03:53:19.010Z,4.56
2023-05-02T03:55:48.896Z,4.69
2023-05-02T03:58:18.234Z,4.84
2023-05-02T04:00:45.322Z,5.01
2023-05-02T04:03:12.627Z,5.22
2023-05-02T04:05:42.559Z,5.47
2023-05-02T04:08:10.899Z,5.77
2023-05-02T04:10:37.853Z,6.11
2023-05-02T04:13:06.484Z,6.44
2023-05-02T04:15:34.114Z,6.80
2023-05-02T04:18:01.251Z,7.18
2023-05-02T04:20:29.059Z,7.60
2023-05-02T04:22:55.838Z,8.12
2023-05-02T04:25:22.559Z,8.75
2023-05-02T04:27:50.850Z,9.36
2023-05-02T04:30:20.617Z,9.80
2023-05-02T04:32:57.005Z,10.10
2023-05-02T04:35:24.901Z,10.35
2023-05-02T04:37:51.900Z,10.49
2023-05-02T04:40:19.059Z,10.56
2023-05-02T04:42:48.008Z,10.57
2023-05-02T04:45:18.711Z,10.57
2023-05-02T04:47:45.896Z,10.57
2023-05-02T04:50:12.590Z,10.58
2023-05-02T04:52:39.302Z,10.59
2023-05-02T04:55:07.003Z,10.59
2023-05-02T04:57:33.736Z,10.59
2023-05-02T05:00:01.751Z,10.61
2023-05-02T05:02:29.337Z,10.64
2023-05-02T05:04:57.285Z,10.68
2023-05-02T05:07:25.719Z,10.73
2023-05-02T05:09:53.518Z,10.78
2023-05-02T05:12:22.210Z,10.84
2023-05-02T05:14:50.541Z,10.90
2023-05-02T05:17:18.510Z,10.95
2023-05-02T05:19:45.374Z,11.02
2023-05-02T05:22:12.713Z,11.08
2023-05-02T05:24:39.479Z,11.15
2023-05-02T05:27:06.693Z,11.21
2023-05-02T05:29:33.409Z,11.28
2023-05-02T05:32:00.286Z,11.35
2023-05-02T05:34:27.893Z,11.42
2023-05-02T05:36:57.652Z,11.50
2023-05-02T05:39:25.332Z,11.57
2023-05-02T05:41:54.645Z,11.65
2023-05-02T05:44:22.314Z,11.74
2023-05-02T05:46:49.203Z,11.82
2023-05-02T05:49:17.110Z,11.91
2023-05-02T05:51:44.167Z,12.00
2023-05-02T05:54:11.529Z,12.09
2023-05-02T05:56:38.519Z,12.18
2023-05-02T05:59:09.452Z,12.27
2023-05-02T06:01:36.662Z,12.35
2023-05-02T06:04:05.345Z,12.42
2023-05-02T06:06:34.057Z,12.49
2023-05-02T06:09:01.265Z,12.56
2023-05-02T06:11:28.679Z,12.63
2023-05-02T06:13:56.657Z,12.70
2023-05-02T06:16:23.746Z,12.76
2023-05-02T06:18:51.559Z,12.83
2023-05-02T06:21:18.433Z,12.88
2023-05-02T06:23:46.093Z,12.94
2023-05-02T06:26:12.877Z,13.01
2023-05-02T06:28:39.689Z,13.07
2023-05-02T06:31:06.523Z,13.13
2023-05-02T06:33:33.604Z,13.19
2023-05-02T06:36:01.865Z,13.26
2023-05-02T06:38:28.852Z,13.34
2023-05-02T06:40:55.929Z,13.41
2023-05-02T06:43:22.775Z,13.47
2023-05-02T06:45:52.210Z,13.54
2023-05-02T06:48:18.918Z,13.60
2023-05-02T06:50:45.745Z,13.67
2023-05-02T06:53:12.435Z,13.74
2023-05-02T06:55:39.054Z,13.80
2023-05-02T06:58:05.702Z,13.87
2023-05-02T07:00:32.534Z,13.96
2023-05-02T07:02:59.284Z,14.06
2023-05-02T07:05:26.018Z,14.15
2023-05-02T07:07:52.712Z,14.23
2023-05-02T07:10:19.470Z,14.29
2023-05-02T07:12:46.154Z,14.35
2023-05-02T07:15:13.930Z,14.44
2023-05-02T07:17:41.091Z,14.51
2023-05-02T07:20:08.838Z,14.56
2023-05-02T07:22:35.496Z,14.65
2023-05-02T07:25:02.601Z,14.72
2023-05-02T07:27:29.288Z,14.79
2023-05-02T07:29:56.010Z,14.89
2023-05-02T07:32:22.859Z,14.97
2023-05-02T07:34:49.597Z,15.04
2023-05-02T07:37:16.508Z,15.10
2023-05-02T07:39:43.327Z,15.17
2023-05-02T07:42:10.079Z,15.24
2023-05-02T07:44:36.928Z,15.30
2023-05-02T07:47:03.638Z,15.36
2023-05-02T07:49:31.412Z,15.42
2023-05-02T07:51:58.183Z,15.47
2023-05-02T07:54:27.977Z,15.50
2023-05-02T07:56:57.626Z,15.53
2023-05-02T07:59:24.262Z,15.56
2023-05-02T08:01:50.918Z,15.58
2023-05-02T08:04:17.776Z,15.66
2023-05-02T08:06:45.329Z,15.74
2023-05-02T08:09:12.112Z,15.79
2023-05-02T08:11:38.841Z,15.84
2023-05-02T08:14:05.534Z,15.90
2023-05-02T08:16:32.331Z,15.94
2023-05-02T08:18:59.080Z,15.98
2023-05-02T08:21:26.062Z,16.02
2023-05-02T08:23:52.713Z,16.10
2023-05-02T08:26:21.932Z,16.17
2023-05-02T08:28:48.593Z,16.23
2023-05-02T08:31:15.339Z,16.29
2023-05-02T08:33:42.153Z,16.36
2023-05-02T08:36:13.277Z,16.45
2023-05-02T08:38:39.982Z,16.52
2023-05-02T08:41:14.001Z,16.56
2023-05-02T08:43:41.025Z,16.59
2023-05-02T08:46:08.543Z,16.65
2023-05-02T08:48:37.113Z,16.73
2023-05-02T08:51:04.443Z,16.78
2023-05-02T08:53:32.510Z,16.82
2023-05-02T08:56:00.373Z,16.89
2023-05-02T08:58:27.120Z,16.97
2023-05-02T09:00:53.906Z,17.04
2023-05-02T09:03:34.003Z,17.11
2023-05-02T09:06:13.002Z,17.17
2023-05-02T09:08:43.550Z,17.21
2023-05-02T09:11:11.117Z,17.25
2023-05-02T09:13:38.522Z,17.29
2023-05-02T09:16:10.114Z,17.34
2023-05-02T09:18:49.755Z,17.37
2023-05-02T09:21:20.574Z,17.37
2023-05-02T09:23:49.948Z,17.36
2023-05-02T09:26:20.389Z,17.36
2023-05-02T09:28:48.914Z,17.37
2023-05-02T09:33:53.508Z,17.48
2023-05-02T09:36:21.240Z,17.51
2023-05-02T09:38:49.250Z,17.53
2023-05-02T09:41:18.003Z,17.55
2023-05-02T09:43:55.442Z,17.58
2023-05-02T09:46:22.219Z,17.62
2023-05-02T09:48:56.168Z,17.64
2023-05-02T09:51:24.143Z,17.69
2023-05-02T09:53:50.994Z,17.71
2023-05-02T09:56:17.814Z,17.70
2023-05-02T09:58:44.731Z,17.69
2023-05-02T10:01:18.835Z,17.72
2023-05-02T10:03:47.950Z,17.76
2023-05-02T10:06:15.730Z,17.81
2023-05-02T10:08:42.504Z,17.88
2023-05-02T10:11:09.204Z,17.94
2023-05-02T10:13:37.305Z,17.99
2023-05-02T10:16:04.890Z,18.04
2023-05-02T10:18:43.923Z,18.12
2023-05-02T10:21:11.769Z,18.22
2023-05-02T10:23:43.835Z,18.29
2023-05-02T10:26:15.082Z,18.38
2023-05-02T10:28:42.544Z,18.44
2023-05-02T10:31:13.374Z,18.44
2023-05-02T10:33:40.266Z,18.42
2023-05-02T10:36:08.524Z,18.44
2023-05-02T10:38:36.006Z,18.45
2023-05-02T10:41:15.230Z,18.47
2023-05-02T10:43:42.075Z,18.50
2023-05-02T10:46:34.338Z,18.53
2023-05-02T10:49:08.099Z,18.57
2023-05-02T10:51:36.443Z,18.59
2023-05-02T10:54:25.218Z,18.62
2023-05-02T10:57:05.826Z,18.64
2023-05-02T10:59:39.972Z,18.67
2023-05-02T11:02:30.997Z,18.67
2023-05-02T11:05:05.292Z,18.66
2023-05-02T11:08:23.152Z,18.68
2023-05-02T11:10:50.263Z,18.65
2023-05-02T11:13:16.993Z,18.64
2023-05-02T11:15:43.750Z,18.61
2023-05-02T11:18:14.540Z,18.59
2023-05-02T11:20:44.760Z,18.60
2023-05-02T11:23:26.248Z,18.62
2023-05-02T11:25:56.847Z,18.67
2023-05-02T11:28:48.195Z,18.70
2023-05-02T11:31:27.910Z,18.72
2023-05-02T11:34:01.558Z,18.72
2023-05-02T11:36:29.662Z,18.75
2023-05-02T11:38:56.585Z,18.79
2023-05-02T11:41:23.554Z,18.82
2023-05-02T11:44:03.513Z,18.84
2023-05-02T11:46:30.838Z,18.86
2023-05-02T11:48:57.729Z,18.87
2023-05-02T11:51:24.458Z,18.86
2023-05-02T11:53:51.515Z,18.85
2023-05-02T11:56:18.183Z,18.84
2023-05-02T11:58:47.149Z,18.84
2023-05-02T12:01:17.560Z,18.84
2023-05-02T12:03:45.071Z,18.81
2023-05-02T12:06:13.607Z,18.81
2023-05-02T12:08:41.727Z,18.81
2023-05-02T12:11:09.296Z,18.83
2023-05-02T12:13:36.200Z,18.86
2023-05-02T12:16:03.110Z,18.90
2023-05-02T12:18:30.049Z,18.89
2023-05-02T12:20:56.751Z,18.86
2023-05-02T12:23:24.417Z,18.85
2023-05-02T12:25:51.164Z,18.87
2023-05-02T12:28:18.857Z,18.89
2023-05-02T12:30:47.920Z,18.88
2023-05-02T12:33:14.649Z,18.89
2023-05-02T12:35:41.444Z,18.91
2023-05-02T12:38:18.821Z,18.93
2023-05-02T12:40:52.478Z,18.95
2023-05-02T12:43:19.656Z,18.99
2023-05-02T12:45:48.450Z,19.04
2023-05-02T12:48:18.709Z,19.05
2023-05-02T12:50:45.432Z,19.06
2023-05-02T12:53:12.189Z,19.08
2023-05-02T12:55:38.905Z,19.10
2023-05-02T12:58:06.989Z,19.14
2023-05-02T13:00:36.658Z,19.16
2023-05-02T13:03:03.751Z,19.20
2023-05-02T13:05:30.711Z,19.24
2023-05-02T13:07:58.516Z,19.27
2023-05-02T13:10:26.198Z,19.31
2023-05-02T13:12:52.965Z,19.36
2023-05-02T13:15:19.890Z,19.40
2023-05-02T13:17:46.805Z,19.43
2023-05-02T13:20:13.671Z,19.43
2023-05-02T13:22:40.341Z,19.45
2023-05-02T13:25:07.722Z,19.45
2023-05-02T13:27:34.547Z,19.46
2023-05-02T13:30:06.772Z,19.45
2023-05-02T13:32:35.639Z,19.44
2023-05-02T13:35:03.795Z,19.42
2023-05-02T13:37:30.570Z,19.42
2023-05-02T13:39:57.292Z,19.45
2023-05-02T13:42:24.006Z,19.48
2023-05-02T13:44:50.838Z,19.51
2023-05-02T13:47:17.493Z,19.54
2023-05-02T13:49:44.253Z,19.56
2023-05-02T13:52:11.208Z,19.60
2023-05-02T13:54:38.049Z,19.62
2023-05-02T13:57:05.616Z,19.63
2023-05-02T13:59:32.301Z,19.63
2023-05-02T14:01:59.021Z,19.58
2023-05-02T14:04:26.058Z,19.55
2023-05-02T14:06:52.927Z,19.52
2023-05-02T14:09:20.688Z,19.49
2023-05-02T14:11:48.560Z,19.49
2023-05-02T14:14:15.395Z,19.49
2023-05-02T14:16:42.660Z,19.47
2023-05-02T14:19:09.399Z,19.46
2023-05-02T14:21:38.507Z,19.45
2023-05-02T14:24:06.604Z,19.43
2023-05-02T14:26:33.443Z,19.42
2023-05-02T14:29:00.814Z,19.42
2023-05-02T14:31:31.178Z,19.41
2023-05-02T14:33:57.922Z,19.40
2023-05-02T14:36:24.575Z,19.38
2023-05-02T14:38:51.353Z,19.37
2023-05-02T14:41:18.066Z,19.37
2023-05-02T14:43:45.138Z,19.36
2023-05-02T14:46:12.016Z,19.34
2023-05-02T14:48:38.802Z,19.32
2023-05-02T14:51:05.797Z,19.29
2023-05-02T14:53:32.629Z,19.27
2023-05-02T14:55:59.393Z,19.25
2023-05-02T14:58:26.242Z,19.22
2023-05-02T15:00:52.975Z,19.19
2023-05-02T15:03:19.886Z,19.16
2023-05-02T15:05:46.703Z,19.11
2023-05-02T15:08:13.451Z,19.07
2023-05-02T15:10:40.208Z,19.05
2023-05-02T15:13:07.576Z,19.04
2023-05-02T15:15:34.724Z,19.02
2023-05-02T15:18:01.556Z,19.00
2023-05-02T15:20:28.220Z,18.98
2023-05-02T15:22:55.037Z,18.97
2023-05-02T15:25:21.754Z,18.95
2023-05-02T15:27:48.533Z,18.93
2023-05-02T15:30:17.773Z,18.89
2023-05-02T15:32:44.742Z,18.87
2023-05-02T15:35:11.935Z,18.85
2023-05-02T15:37:38.579Z,18.83
2023-05-02T15:40:06.884Z,18.81
2023-05-02T15:42:36.803Z,18.80
2023-05-02T15:45:04.222Z,18.80
2023-05-02T15:47:30.961Z,18.78
2023-05-02T15:49:58.556Z,18.76
2023-05-02T15:52:25.337Z,18.73
2023-05-02T15:54:52.672Z,18.72
2023-05-02T15:57:19.846Z,18.71
2023-05-02T15:59:46.641Z,18.70
2023-05-02T16:02:13.406Z,18.68
2023-05-02T16:04:40.212Z,18.66
2023-05-02T16:07:07.011Z,18.63
2023-05-02T16:09:33.753Z,18.60
2023-05-02T16:12:01.635Z,18.56
2023-05-02T16:14:29.087Z,18.53
2023-05-02T16:16:59.659Z,18.50
2023-05-02T16:19:26.764Z,18.46
2023-05-02T16:21:53.435Z,18.44
2023-05-02T16:24:20.142Z,18.41
2023-05-02T16:26:46.838Z,18.37
2023-05-02T16:29:13.576Z,18.33
2023-05-02T16:34:07.364Z,18.24
2023-05-02T16:36:34.293Z,18.19
2023-05-02T16:39:01.173Z,18.13
2023-05-02T16:41:27.934Z,18.06
2023-05-02T16:43:55.056Z,18.00
2023-05-02T16:46:21.958Z,17.92
2023-05-02T16:48:48.781Z,17.85
2023-05-02T16:51:15.500Z,17.76
2023-05-02T16:53:43.644Z,17.68
2023-05-02T16:56:10.438Z,17.59
2023-05-02T16:58:37.219Z,17.50
2023-05-02T17:01:05.439Z,17.41
2023-05-02T17:03:32.294Z,17.32
2023-05-02T17:06:01.241Z,17.23
2023-05-02T17:08:28.259Z,17.14
2023-05-02T17:10:55.037Z,17.05
2023-05-02T17:13:21.690Z,16.95
2023-05-02T17:15:48.730Z,16.87
2023-05-02T17:18:15.730Z,16.78
2023-05-02T17:20:42.810Z,16.70
2023-05-02T17:23:09.936Z,16.60
2023-05-02T17:25:36.710Z,16.51
2023-05-02T17:28:03.422Z,16.42
2023-05-02T17:30:30.745Z,16.32
2023-05-02T17:32:58.882Z,16.22
2023-05-02T17:35:25.983Z,16.13
2023-05-02T17:37:52.764Z,16.03
2023-05-02T17:40:19.766Z,15.93
2023-05-02T17:42:46.829Z,15.83
2023-05-02T17:45:13.724Z,15.74
2023-05-02T17:47:40.761Z,15.64
2023-05-02T17:50:08.782Z,15.55
2023-05-02T17:52:35.610Z,15.46
2023-05-02T17:55:02.474Z,15.36
2023-05-02T17:57:29.245Z,15.27
2023-05-02T18:00:00.111Z,15.18
2023-05-02T18:02:27.719Z,15.09
2023-05-02T18:04:54.822Z,15.00
2023-05-02T18:07:23.924Z,14.92
2023-05-02T18:09:51.694Z,14.83
2023-05-02T18:12:19.089Z,14.74
2023-05-02T18:14:45.975Z,14.66
2023-05-02T18:17:12.959Z,14.59
2023-05-02T18:19:39.805Z,14.51
2023-05-02T18:22:07.338Z,14.45
2023-05-02T18:24:34.156Z,14.37
2023-05-02T18:27:00.837Z,14.30
2023-05-02T18:29:27.841Z,14.23
2023-05-02T18:31:54.909Z,14.16
2023-05-02T18:34:21.715Z,14.10
2023-05-02T18:36:48.748Z,14.03
2023-05-02T18:39:16.218Z,13.96
2023-05-02T18:41:42.924Z,13.90
2023-05-02T18:44:11.516Z,13.83
2023-05-02T18:46:38.624Z,13.76
2023-05-02T18:49:07.116Z,13.69
2023-05-02T18:51:33.785Z,13.62
2023-05-02T18:54:00.611Z,13.56
2023-05-02T18:56:28.175Z,13.51
2023-05-02T18:58:56.660Z,13.46
2023-05-02T19:01:23.815Z,13.42
2023-05-02T19:03:52.509Z,13.36
2023-05-02T19:06:20.442Z,13.31
2023-05-02T19:08:47.891Z,13.26
2023-05-02T19:11:14.643Z,13.20
2023-05-02T19:13:41.383Z,13.16
2023-05-02T19:16:12.734Z,13.11
2023-05-02T19:18:39.990Z,13.05
2023-05-02T19:21:12.627Z,13.00
2023-05-02T19:23:40.639Z,12.95
2023-05-02T19:26:11.866Z,12.89
2023-05-02T19:28:38.695Z,12.85
2023-05-02T19:31:31.807Z,12.82
2023-05-02T19:33:58.494Z,12.77
2023-05-02T19:36:25.323Z,12.74
2023-05-02T19:38:53.728Z,12.71
2023-05-02T19:41:21.332Z,12.68
2023-05-02T19:43:48.008Z,12.64
2023-05-02T19:46:15.123Z,12.60
2023-05-02T19:48:41.945Z,12.56
2023-05-02T19:51:08.733Z,12.51
2023-05-02T19:53:36.056Z,12.47
2023-05-02T19:56:03.953Z,12.44
2023-05-02T19:58:31.119Z,12.40
2023-05-02T20:00:57.960Z,12.36
2023-05-02T20:03:25.533Z,12.33
2023-05-02T20:05:52.491Z,12.30
2023-05-02T20:08:19.754Z,12.28
2023-05-02T20:10:47.362Z,12.25
2023-05-02T20:13:14.051Z,12.23
2023-05-02T20:15:40.826Z,12.20
2023-05-02T20:18:07.947Z,12.18
2023-05-02T20:20:34.701Z,12.16
2023-05-02T20:23:01.454Z,12.13
2023-05-02T20:25:28.700Z,12.11
2023-05-02T20:27:55.415Z,12.09
2023-05-02T20:30:22.321Z,12.09
2023-05-02T20:32:49.079Z,12.07
2023-05-02T20:35:16.257Z,12.07
2023-05-02T20:37:42.930Z,12.07
2023-05-02T20:40:10.273Z,12.07
2023-05-02T20:42:39.019Z,12.07
2023-05-02T20:45:12.260Z,12.07
2023-05-02T20:47:39.401Z,12.08
2023-05-02T20:50:10.767Z,12.09
2023-05-02T20:52:40.512Z,12.11
2023-05-02T20:55:08.026Z,12.12
2023-05-02T20:57:35.033Z,12.13
2023-05-02T21:00:02.778Z,12.15
2023-05-02T21:02:30.116Z,12.16
2023-05-02T21:04:56.959Z,12.17
2023-05-02T21:07:23.653Z,12.18
2023-05-02T21:09:50.737Z,12.19
2023-05-02T21:12:17.462Z,12.19
2023-05-02T21:14:44.141Z,12.19
2023-05-02T21:17:11.072Z,12.19
2023-05-02T21:19:37.796Z,12.19
2023-05-02T21:22:04.676Z,12.18
2023-05-02T21:24:31.519Z,12.18
2023-05-02T21:26:58.564Z,12.17
2023-05-02T21:29:25.415Z,12.17
2023-05-02T21:31:54.119Z,12.16
2023-05-02T21:34:21.470Z,12.15
2023-05-02T21:36:48.220Z,12.13
2023-05-02T21:39:16.281Z,12.12
2023-05-02T21:41:42.982Z,12.11
2023-05-02T21:44:11.012Z,12.09
2023-05-02T21:46:37.730Z,12.09
2023-05-02T21:49:04.520Z,12.08
2023-05-02T21:51:31.766Z,12.07
2023-05-02T21:53:58.414Z,12.05
2023-05-02T21:56:25.362Z,12.04
2023-05-02T21:58:52.016Z,12.04
2023-05-02T22:01:19.022Z,12.03
2023-05-02T22:03:46.507Z,12.03
2023-05-02T22:06:13.525Z,12.01
2023-05-02T22:08:40.403Z,12.01
2023-05-02T22:11:10.042Z,12.01
2023-05-02T22:13:37.051Z,12.01
2023-05-02T22:16:04.177Z,12.00
2023-05-02T22:18:31.109Z,12.01
2023-05-02T22:20:58.693Z,12.01
2023-05-02T22:23:25.522Z,12.02
2023-05-02T22:25:52.378Z,12.02
2023-05-02T22:28:19.055Z,12.02
2023-05-02T22:30:46.141Z,12.03
2023-05-02T22:33:14.163Z,12.03
2023-05-02T22:35:41.116Z,12.04
2023-05-02T22:38:10.947Z,12.04
2023-05-02T22:40:37.700Z,12.05
2023-05-02T22:43:04.448Z,12.05
2023-05-02T22:45:31.244Z,12.06
2023-05-02T22:47:57.981Z,12.07
2023-05-02T22:50:26.299Z,12.08
2023-05-02T22:52:57.286Z,12.09
2023-05-02T22:55:24.222Z,12.10
2023-05-02T22:57:51.093Z,12.11
2023-05-02T23:00:17.819Z,12.12
2023-05-02T23:02:45.107Z,12.13
2023-05-02T23:05:11.996Z,12.15
2023-05-02T23:07:38.794Z,12.15
2023-05-02T23:10:06.556Z,12.16
2023-05-02T23:12:33.222Z,12.17
2023-05-02T23:15:00.163Z,12.17
2023-05-02T23:17:26.856Z,12.18
2023-05-02T23:19:53.579Z,12.18
2023-05-02T23:25:14.974Z,12.19
2023-05-02T23:27:41.752Z,12.17
2023-05-02T23:30:08.928Z,12.17
2023-05-02T23:32:36.228Z,12.16
2023-05-02T23:35:04.109Z,12.15
2023-05-02T23:37:30.974Z,12.15
2023-05-02T23:39:58.199Z,12.15
2023-05-02T23:42:25.071Z,12.13
2023-05-02T23:44:53.758Z,12.13
2023-05-02T23:47:22.881Z,12.13
2023-05-02T23:49:49.807Z,12.12
2023-05-02T23:52:16.519Z,12.12
2023-05-02T23:54:43.742Z,12.10
2023-05-02T23:57:10.405Z,12.10
2023-05-02T23:59:37.113Z,12.10
